Time;durP1;ratioP1;P1;durP2;ratioP2;P2;SDS_P1;SDS_P2;PMS_P1;PMS_P2;Temp;Humidity;BMP_temperature;BMP_pressure;BME280_temperature;BME280_humidity;BME280_pressure;Samples;Min_cycle;Max_cycle;Signal;HPM_P1;HPM_P2
2021/06/26 00:00:09;;;;;;;10.80;5.55;;;18.50;99.90;;;;;;5051498;28;20210;-72
2021/06/26 00:02:36;;;;;;;6.05;5.45;;;18.40;99.90;;;;;;5051845;28;20206;-74
2021/06/26 00:05:03;;;;;;;5.65;5.10;;;18.40;99.90;;;;;;5052327;28;20206;-77
2021/06/26 00:07:31;;;;;;;9.43;6.45;;;18.40;99.90;;;;;;5052169;28;20210;-78
2021/06/26 00:09:58;;;;;;;7.07;5.03;;;18.40;99.90;;;;;;5051707;28;20230;-78
2021/06/26 00:12:25;;;;;;;7.10;4.85;;;18.20;99.90;;;;;;5051878;28;20586;-79
2021/06/26 00:14:52;;;;;;;5.28;4.80;;;18.20;99.90;;;;;;5051541;28;20264;-79
2021/06/26 00:17:19;;;;;;;5.22;4.72;;;18.10;99.90;;;;;;5051560;28;20686;-79
2021/06/26 00:19:46;;;;;;;6.95;4.53;;;18.10;99.90;;;;;;5051499;28;20215;-79
2021/06/26 00:22:13;;;;;;;10.70;5.40;;;18.30;99.90;;;;;;5051639;28;20213;-79
2021/06/26 00:24:42;;;;;;;5.07;4.68;;;18.50;99.90;;;;;;5051465;28;20211;-79
2021/06/26 00:27:09;;;;;;;4.95;4.55;;;18.70;99.90;;;;;;5051526;28;20260;-79
2021/06/26 00:29:36;;;;;;;6.38;4.85;;;18.80;99.90;;;;;;5050859;28;20272;-77
2021/06/26 00:32:03;;;;;;;5.60;5.10;;;18.80;99.90;;;;;;5051867;28;20211;-73
2021/06/26 00:34:30;;;;;;;7.05;5.40;;;18.80;99.90;;;;;;5051616;28;20203;-75
2021/06/26 00:36:57;;;;;;;4.82;4.43;;;18.80;99.90;;;;;;5051289;28;20257;-74
2021/06/26 00:39:24;;;;;;;5.38;4.75;;;18.80;99.90;;;;;;5051224;28;20257;-73
2021/06/26 00:41:53;;;;;;;5.13;4.72;;;18.90;99.90;;;;;;5051169;28;20203;-78
2021/06/26 00:44:20;;;;;;;5.07;4.20;;;18.80;99.90;;;;;;5050915;28;20206;-78
2021/06/26 00:46:47;;;;;;;5.47;4.72;;;18.70;99.90;;;;;;5050994;28;20207;-78
2021/06/26 00:49:14;;;;;;;5.65;5.15;;;18.70;99.90;;;;;;5051656;28;20273;-77
2021/06/26 00:51:41;;;;;;;6.70;4.57;;;18.80;99.90;;;;;;5050584;28;20235;-76
2021/06/26 00:54:08;;;;;;;4.97;4.50;;;18.80;99.90;;;;;;5051077;28;20290;-74
2021/06/26 00:56:35;;;;;;;5.68;5.20;;;18.80;99.90;;;;;;5051177;28;20206;-73
2021/06/26 00:59:04;;;;;;;5.35;4.28;;;18.80;99.90;;;;;;5050972;28;20627;-74
2021/06/26 01:01:31;;;;;;;5.43;4.88;;;18.80;99.90;;;;;;5051357;28;20276;-72
2021/06/26 01:03:58;;;;;;;6.30;5.70;;;18.80;99.90;;;;;;5050642;28;20210;-72
2021/06/26 01:06:25;;;;;;;7.13;4.85;;;18.80;99.90;;;;;;5051233;28;20218;-74
2021/06/26 01:08:52;;;;;;;6.07;4.75;;;18.80;99.90;;;;;;5050334;28;20211;-76
2021/06/26 01:11:19;;;;;;;6.85;4.72;;;18.80;99.90;;;;;;5050932;28;20284;-75
2021/06/26 01:13:46;;;;;;;5.30;4.80;;;18.80;99.90;;;;;;5050020;28;20686;-75
2021/06/26 01:16:14;;;;;;;4.97;4.18;;;18.80;99.90;;;;;;5050753;28;20260;-74
2021/06/26 01:18:41;;;;;;;5.10;4.60;;;18.80;99.90;;;;;;5050726;28;20252;-71
2021/06/26 01:21:08;;;;;;;6.03;5.40;;;18.80;99.90;;;;;;5050620;28;20260;-75
2021/06/26 01:23:45;;;;;;;5.80;5.30;;;18.80;99.90;;;;;;5050275;28;20764;-72
2021/06/26 01:26:12;;;;;;;5.72;5.18;;;18.80;99.90;;;;;;5050321;28;20227;-75
2021/06/26 01:28:39;;;;;;;5.45;4.47;;;18.80;99.90;;;;;;5050202;28;20207;-75
2021/06/26 01:31:06;;;;;;;5.88;5.38;;;18.80;99.90;;;;;;5050325;28;20226;-76
2021/06/26 01:33:33;;;;;;;5.50;5.00;;;18.80;99.90;;;;;;5050955;28;20207;-70
2021/06/26 01:36:01;;;;;;;6.45;5.38;;;18.70;99.90;;;;;;5050565;28;20213;-77
2021/06/26 01:38:28;;;;;;;5.65;5.10;;;18.70;99.90;;;;;;5050767;28;20284;-72
2021/06/26 01:40:56;;;;;;;5.18;4.18;;;18.60;99.90;;;;;;5049706;28;20215;-74
2021/06/26 01:43:23;;;;;;;5.20;4.80;;;18.50;99.90;;;;;;5050498;28;20706;-75
2021/06/26 01:45:50;;;;;;;5.82;5.32;;;18.50;99.90;;;;;;5050049;28;20206;-74
2021/06/26 01:48:17;;;;;;;6.40;5.80;;;18.60;99.90;;;;;;5048402;28;20198;-72
2021/06/26 01:50:44;;;;;;;6.07;5.50;;;18.70;99.90;;;;;;5049703;28;20712;-72
2021/06/26 01:53:16;;;;;;;6.00;5.40;;;18.70;99.90;;;;;;5050370;28;20206;-72
2021/06/26 01:55:43;;;;;;;6.90;5.32;;;18.70;99.90;;;;;;5049519;28;20252;-74
2021/06/26 01:58:11;;;;;;;6.03;5.28;;;18.70;99.90;;;;;;5052316;28;20210;-75
2021/06/26 02:00:38;;;;;;;5.63;5.13;;;18.60;99.90;;;;;;5053808;28;20207;-73
2021/06/26 02:03:05;;;;;;;6.82;5.63;;;18.50;99.90;;;;;;5054104;28;20736;-72
2021/06/26 02:05:32;;;;;;;6.97;5.80;;;18.50;99.90;;;;;;5054714;28;20202;-77
2021/06/26 02:08:01;;;;;;;8.43;5.43;;;18.40;99.90;;;;;;5053632;28;20716;-76
2021/06/26 02:10:28;;;;;;;6.80;5.88;;;18.40;99.90;;;;;;5053813;28;20226;-78
2021/06/26 02:12:55;;;;;;;8.10;6.15;;;18.40;99.90;;;;;;5053727;28;20211;-77
2021/06/26 02:15:25;;;;;;;6.47;5.68;;;18.40;99.90;;;;;;5054266;28;20713;-75
2021/06/26 02:17:52;;;;;;;5.90;5.40;;;18.30;99.90;;;;;;5053669;28;20625;-77
2021/06/26 02:20:19;;;;;;;6.18;5.03;;;18.30;99.90;;;;;;5054397;28;20268;-76
2021/06/26 02:22:46;;;;;;;7.68;6.50;;;18.30;99.90;;;;;;5053275;28;20276;-77
2021/06/26 02:25:14;;;;;;;7.30;5.43;;;18.30;99.90;;;;;;5053898;28;20293;-78
2021/06/26 02:27:41;;;;;;;6.53;5.93;;;18.20;99.90;;;;;;5053447;28;20666;-78
2021/06/26 02:30:09;;;;;;;5.78;5.28;;;18.20;99.90;;;;;;5053391;28;20207;-76
2021/06/26 02:32:38;;;;;;;5.90;4.82;;;18.20;99.90;;;;;;5053694;28;20297;-75
2021/06/26 02:35:06;;;;;;;6.35;5.75;;;18.10;99.90;;;;;;5053617;28;20215;-74
2021/06/26 02:37:34;;;;;;;5.47;4.97;;;18.20;99.90;;;;;;5054264;28;20210;-75
2021/06/26 02:40:01;;;;;;;7.68;5.38;;;18.10;99.90;;;;;;5053679;28;20203;-75
2021/06/26 02:42:28;;;;;;;6.68;6.05;;;18.00;99.90;;;;;;5053592;28;20210;-73
2021/06/26 02:44:55;;;;;;;5.72;4.88;;;17.90;99.90;;;;;;5053048;28;20214;-74
2021/06/26 02:47:22;;;;;;;6.40;4.90;;;17.80;99.90;;;;;;5053595;28;20739;-75
2021/06/26 02:49:50;;;;;;;8.43;5.05;;;17.80;99.90;;;;;;5053325;28;20214;-75
2021/06/26 02:52:17;;;;;;;7.05;5.70;;;17.80;99.90;;;;;;5053402;28;20235;-74
2021/06/26 02:54:45;;;;;;;5.68;5.05;;;17.70;99.90;;;;;;5052945;28;20206;-72
2021/06/26 02:57:12;;;;;;;5.65;5.25;;;17.60;99.90;;;;;;5053209;28;20566;-74
2021/06/26 02:59:38;;;;;;;5.85;5.38;;;17.60;99.90;;;;;;5053030;28;20743;-71
2021/06/26 03:02:06;;;;;;;5.88;4.88;;;17.60;99.90;;;;;;5053048;28;20268;-71
2021/06/26 03:04:32;;;;;;;6.07;5.07;;;17.40;99.90;;;;;;5053794;28;20210;-72
2021/06/26 03:07:01;;;;;;;6.43;4.80;;;17.40;99.90;;;;;;5053446;28;20260;-76
2021/06/26 03:09:28;;;;;;;6.03;4.95;;;17.40;99.90;;;;;;5051499;28;20268;-76
2021/06/26 03:11:55;;;;;;;6.93;5.38;;;17.40;99.90;;;;;;5052681;28;20668;-75
2021/06/26 03:14:22;;;;;;;7.78;5.65;;;17.50;99.90;;;;;;5052704;28;20206;-76
2021/06/26 03:16:49;;;;;;;8.60;4.88;;;17.40;99.90;;;;;;5052625;28;20211;-76
2021/06/26 03:19:15;;;;;;;6.95;5.45;;;17.50;99.90;;;;;;5052729;28;20211;-76
2021/06/26 03:21:43;;;;;;;6.40;5.85;;;17.50;99.90;;;;;;5052545;28;20735;-80
2021/06/26 03:24:11;;;;;;;5.93;5.32;;;17.40;99.90;;;;;;5052353;28;20260;-72
2021/06/26 03:26:38;;;;;;;6.97;6.28;;;17.40;99.90;;;;;;5052817;28;20206;-77
2021/06/26 03:29:05;;;;;;;5.60;5.15;;;17.30;99.90;;;;;;5052992;28;20211;-72
2021/06/26 03:31:33;;;;;;;6.10;5.60;;;17.30;99.90;;;;;;5053064;28;20288;-78
2021/06/26 03:34:00;;;;;;;5.97;5.07;;;17.30;99.90;;;;;;5053002;28;20203;-77
2021/06/26 03:36:27;;;;;;;5.75;5.25;;;17.30;99.90;;;;;;5052578;28;20257;-78
2021/06/26 03:38:54;;;;;;;6.13;5.53;;;17.10;99.90;;;;;;5052108;28;20203;-78
2021/06/26 03:41:25;;;;;;;5.75;4.85;;;17.10;99.90;;;;;;5052696;28;20620;-79
2021/06/26 03:43:53;;;;;;;7.63;4.95;;;17.10;99.90;;;;;;5052508;28;20234;-79
2021/06/26 03:46:20;;;;;;;5.78;5.13;;;17.00;99.90;;;;;;5052581;28;20203;-78
2021/06/26 03:48:47;;;;;;;5.18;4.68;;;17.00;99.90;;;;;;5052598;28;20218;-77
2021/06/26 03:51:14;;;;;;;5.97;5.20;;;17.10;99.90;;;;;;5052402;28;20238;-79
2021/06/26 03:53:41;;;;;;;6.20;4.40;;;17.10;99.90;;;;;;5038180;28;20211;-78
2021/06/26 03:56:08;;;;;;;5.45;4.95;;;17.20;99.90;;;;;;5052400;28;20269;-78
2021/06/26 03:58:36;;;;;;;6.82;4.88;;;17.20;99.90;;;;;;5052240;28;20210;-74
2021/06/26 04:01:03;;;;;;;4.95;4.55;;;17.10;99.90;;;;;;5052673;28;20234;-76
2021/06/26 04:03:30;;;;;;;5.63;5.13;;;17.10;99.90;;;;;;5052450;28;20210;-79
2021/06/26 04:05:57;;;;;;;5.85;4.57;;;17.00;99.90;;;;;;5051318;28;20199;-73
2021/06/26 04:08:24;;;;;;;4.65;4.25;;;17.00;99.90;;;;;;5052488;28;20640;-79
2021/06/26 04:10:51;;;;;;;6.18;5.57;;;17.00;99.90;;;;;;5051193;28;20283;-77
2021/06/26 04:13:18;;;;;;;5.93;4.88;;;17.00;99.90;;;;;;5051940;28;20233;-72
2021/06/26 04:15:47;;;;;;;7.38;4.25;;;17.00;99.90;;;;;;5051195;28;20678;-76
2021/06/26 04:18:14;;;;;;;5.45;5.05;;;17.00;99.90;;;;;;5052031;28;20232;-73
2021/06/26 04:20:41;;;;;;;5.07;4.68;;;17.00;99.90;;;;;;5050610;28;20214;-71
2021/06/26 04:23:08;;;;;;;6.43;5.47;;;17.00;99.90;;;;;;5052066;28;20214;-75
2021/06/26 04:25:35;;;;;;;5.97;4.95;;;17.00;99.90;;;;;;5052074;28;20252;-71
2021/06/26 04:28:07;;;;;;;6.15;5.65;;;16.90;99.90;;;;;;5051911;28;20211;-72
2021/06/26 04:30:34;;;;;;;7.00;5.15;;;16.80;99.90;;;;;;5051917;28;20294;-77
2021/06/26 04:33:03;;;;;;;6.05;5.45;;;16.80;99.90;;;;;;5051905;28;20219;-70
2021/06/26 04:35:30;;;;;;;5.82;5.18;;;16.80;99.90;;;;;;5051856;28;20256;-70
2021/06/26 04:37:57;;;;;;;5.50;4.97;;;16.90;99.90;;;;;;5051095;28;20257;-73
2021/06/26 04:40:25;;;;;;;7.68;5.15;;;16.90;99.90;;;;;;5051525;28;20327;-70
2021/06/26 04:42:53;;;;;;;6.10;5.20;;;16.90;99.90;;;;;;5050753;28;20747;-74
2021/06/26 04:45:20;;;;;;;6.50;5.38;;;17.00;99.90;;;;;;5051012;28;20558;-72
2021/06/26 04:47:47;;;;;;;6.47;5.93;;;17.10;99.90;;;;;;5050454;28;20203;-77
2021/06/26 04:50:16;;;;;;;9.15;7.70;;;17.10;99.90;;;;;;5050669;28;20253;-70
2021/06/26 04:52:44;;;;;;;11.52;10.32;;;17.10;99.90;;;;;;5050855;28;20280;-72
2021/06/26 04:55:11;;;;;;;15.55;14.10;;;17.30;99.90;;;;;;5050308;28;20261;-79
2021/06/26 04:57:38;;;;;;;20.33;18.42;;;17.80;99.90;;;;;;5050800;28;20206;-80
2021/06/26 05:00:07;;;;;;;17.10;15.30;;;17.90;99.90;;;;;;5050567;28;20264;-71
2021/06/26 05:02:34;;;;;;;14.55;13.02;;;17.90;99.90;;;;;;5050687;28;20677;-80
2021/06/26 05:05:01;;;;;;;16.83;15.07;;;18.10;99.90;;;;;;5050963;28;20254;-70
2021/06/26 05:07:30;;;;;;;14.57;13.10;;;18.20;99.90;;;;;;5050809;28;20202;-71
2021/06/26 05:09:57;;;;;;;16.85;15.07;;;18.40;99.90;;;;;;5050219;28;20696;-70
2021/06/26 05:12:24;;;;;;;14.90;12.52;;;18.40;99.90;;;;;;5050415;28;20234;-81
2021/06/26 05:14:51;;;;;;;14.25;12.95;;;18.40;99.90;;;;;;5050565;28;20210;-81
2021/06/26 05:17:18;;;;;;;14.25;11.25;;;18.30;99.90;;;;;;5050236;28;20686;-81
2021/06/26 05:19:45;;;;;;;10.27;9.40;;;18.30;99.90;;;;;;5050533;28;20215;-82
2021/06/26 05:22:12;;;;;;;6.78;6.13;;;18.40;99.90;;;;;;5051018;28;20207;-78
2021/06/26 05:24:41;;;;;;;7.45;6.22;;;18.30;99.90;;;;;;5049972;28;20261;-79
2021/06/26 05:27:09;;;;;;;7.90;6.03;;;18.30;99.90;;;;;;5050464;28;20260;-82
2021/06/26 05:29:41;;;;;;;8.40;5.57;;;18.30;99.90;;;;;;5050524;28;20203;-77
2021/06/26 05:32:09;;;;;;;7.47;6.32;;;18.30;99.90;;;;;;5049839;28;20604;-82
2021/06/26 05:34:36;;;;;;;7.00;6.40;;;18.30;99.90;;;;;;5050353;28;20574;-79
2021/06/26 05:37:03;;;;;;;7.80;5.95;;;18.30;99.90;;;;;;5050857;28;20211;-82
2021/06/26 05:39:30;;;;;;;7.07;6.47;;;18.30;99.90;;;;;;5050696;28;20210;-81
2021/06/26 05:41:58;;;;;;;7.00;6.28;;;18.30;99.90;;;;;;5050405;28;20222;-82
2021/06/26 05:44:25;;;;;;;6.82;5.85;;;18.50;99.90;;;;;;5050448;28;20256;-83
2021/06/26 05:46:52;;;;;;;6.43;5.68;;;18.60;99.90;;;;;;5035891;28;20207;-83
2021/06/26 05:49:19;;;;;;;6.57;6.07;;;18.50;99.90;;;;;;5050726;28;20206;-82
2021/06/26 05:51:46;;;;;;;7.03;6.38;;;18.60;99.90;;;;;;5049989;28;20227;-83
2021/06/26 05:54:13;;;;;;;9.30;7.13;;;18.50;99.90;;;;;;5050347;28;20203;-82
2021/06/26 05:56:40;;;;;;;7.97;6.93;;;18.50;99.90;;;;;;5050067;28;20240;-82
2021/06/26 05:59:09;;;;;;;7.47;6.65;;;18.50;99.90;;;;;;5050069;28;20206;-79
2021/06/26 06:01:36;;;;;;;7.20;6.60;;;18.60;99.90;;;;;;5050399;28;20211;-80
2021/06/26 06:04:03;;;;;;;9.68;6.90;;;18.60;99.90;;;;;;5050662;28;20674;-82
2021/06/26 06:06:30;;;;;;;11.48;6.57;;;18.90;99.90;;;;;;5050940;28;20241;-85
2021/06/26 06:08:57;;;;;;;7.10;6.40;;;19.10;99.90;;;;;;5049864;28;20284;-83
2021/06/26 06:11:24;;;;;;;7.13;6.55;;;19.40;99.90;;;;;;5050770;28;20348;-84
2021/06/26 06:13:51;;;;;;;6.93;6.22;;;19.40;99.90;;;;;;5050099;28;20210;-83
2021/06/26 06:16:20;;;;;;;8.20;6.97;;;19.30;99.90;;;;;;5050775;28;20674;-84
2021/06/26 06:18:47;;;;;;;6.75;6.10;;;19.20;99.90;;;;;;5050065;28;20207;-83
2021/06/26 06:21:15;;;;;;;8.55;6.70;;;18.90;99.90;;;;;;5050403;28;20207;-86
2021/06/26 06:23:42;;;;;;;8.07;6.40;;;18.90;99.90;;;;;;5050420;28;20252;-85
2021/06/26 06:26:09;;;;;;;7.43;6.63;;;19.00;99.90;;;;;;5050562;28;20257;-86
2021/06/26 06:28:37;;;;;;;7.72;6.93;;;19.10;99.90;;;;;;5048175;28;20655;-74
2021/06/26 06:31:04;;;;;;;6.72;6.13;;;19.10;99.90;;;;;;5042928;28;20575;-84
2021/06/26 06:33:32;;;;;;;6.50;5.80;;;19.30;99.90;;;;;;5048847;28;20238;-75
2021/06/26 06:36:00;;;;;;;7.40;6.45;;;19.40;99.90;;;;;;5049112;28;20207;-88
2021/06/26 06:38:27;;;;;;;6.47;5.47;;;19.50;99.90;;;;;;5047682;28;20214;-72
2021/06/26 06:40:55;;;;;;;7.50;6.20;;;19.60;99.90;;;;;;5047910;28;20217;-75
2021/06/26 06:43:22;;;;;;;8.27;5.85;;;19.70;99.90;;;;;;5045306;28;20627;-73
2021/06/26 06:45:48;;;;;;;6.82;5.43;;;19.80;99.90;;;;;;5053198;28;20257;-78
2021/06/26 06:48:15;;;;;;;7.50;5.38;;;19.70;99.90;;;;;;5047672;28;20207;-74
2021/06/26 06:50:44;;;;;;;5.70;4.70;;;19.10;99.90;;;;;;5047609;28;20237;-81
2021/06/26 06:53:11;;;;;;;5.32;4.82;;;20.60;99.90;;;;;;5051633;28;20582;-79
2021/06/26 06:55:38;;;;;;;5.40;4.78;;;20.00;99.90;;;;;;5051411;28;20207;-75
2021/06/26 06:58:05;;;;;;;6.65;5.32;;;20.10;99.90;;;;;;5053657;28;20211;-80
2021/06/26 07:00:32;;;;;;;4.65;4.25;;;20.40;99.90;;;;;;5053031;28;20207;-82
2021/06/26 07:02:59;;;;;;;5.75;4.63;;;20.40;99.90;;;;;;5052817;28;20750;-79
2021/06/26 07:05:26;;;;;;;6.22;4.85;;;22.80;99.90;;;;;;5053099;28;20639;-83
2021/06/26 07:07:55;;;;;;;5.97;4.75;;;20.70;99.90;;;;;;5052899;28;20222;-82
2021/06/26 07:10:22;;;;;;;5.22;4.60;;;20.70;99.90;;;;;;5052753;28;20627;-80
2021/06/26 07:12:49;;;;;;;5.82;5.22;;;20.70;99.90;;;;;;5052928;28;20288;-80
2021/06/26 07:15:16;;;;;;;6.03;5.40;;;20.80;99.90;;;;;;5048893;28;20199;-78
2021/06/26 07:17:43;;;;;;;7.25;4.45;;;20.80;99.90;;;;;;5051328;28;20203;-78
2021/06/26 07:20:11;;;;;;;4.57;3.83;;;21.00;99.90;;;;;;5046747;28;20252;-77
2021/06/26 07:22:38;;;;;;;6.00;4.55;;;21.00;99.90;;;;;;5050379;28;20210;-76
2021/06/26 07:25:08;;;;;;;6.15;4.35;;;20.70;99.90;;;;;;5052502;28;20253;-77
2021/06/26 07:27:35;;;;;;;5.28;4.88;;;21.10;99.90;;;;;;5052581;28;20203;-81
2021/06/26 07:30:02;;;;;;;7.25;5.13;;;21.40;99.90;;;;;;5051773;28;20207;-77
2021/06/26 07:32:29;;;;;;;5.07;4.47;;;21.50;99.90;;;;;;5047453;28;20241;-78
2021/06/26 07:34:56;;;;;;;7.65;5.00;;;21.80;99.90;;;;;;5051094;28;20635;-78
2021/06/26 07:37:23;;;;;;;6.75;4.75;;;22.20;99.90;;;;;;5052001;28;20252;-83
2021/06/26 07:39:50;;;;;;;5.05;3.85;;;22.00;99.90;;;;;;5051596;28;20199;-77
2021/06/26 07:42:18;;;;;;;6.35;5.40;;;22.00;99.90;;;;;;5052399;28;20219;-85
2021/06/26 07:44:45;;;;;;;6.00;4.53;;;22.80;99.90;;;;;;5052238;28;20203;-83
2021/06/26 07:47:12;;;;;;;4.35;3.95;;;26.00;99.90;;;;;;5044750;28;20206;-76
2021/06/26 07:49:39;;;;;;;7.15;4.07;;;25.20;99.90;;;;;;5051278;28;20207;-73
2021/06/26 07:52:07;;;;;;;4.07;3.78;;;24.10;99.90;;;;;;5047931;28;20230;-76
2021/06/26 07:54:34;;;;;;;4.53;3.83;;;24.40;99.90;;;;;;5045072;28;21671;-83
2021/06/26 07:57:01;;;;;;;7.30;3.90;;;23.90;99.90;;;;;;5050579;28;20203;-87
2021/06/26 07:59:29;;;;;;;4.82;4.43;;;25.30;99.90;;;;;;5051339;28;20215;-75
2021/06/26 08:01:56;;;;;;;4.00;3.25;;;25.40;99.90;;;;;;5047065;28;20215;-78
2021/06/26 08:04:23;;;;;;;4.47;4.05;;;25.30;99.90;;;;;;5046674;28;20268;-78
2021/06/26 08:06:50;;;;;;;5.95;5.45;;;25.30;99.90;;;;;;5051556;28;20203;-77
2021/06/26 08:09:17;;;;;;;4.43;3.50;;;25.30;99.90;;;;;;5050134;28;20215;-78
2021/06/26 08:11:44;;;;;;;4.60;3.95;;;24.90;99.90;;;;;;5050362;28;20280;-80
2021/06/26 08:14:11;;;;;;;3.72;3.42;;;24.60;99.90;;;;;;5051734;28;20261;-76
2021/06/26 08:16:40;;;;;;;4.10;3.72;;;25.00;99.90;;;;;;5051256;28;20693;-76
2021/06/26 08:19:06;;;;;;;3.42;3.08;;;25.90;99.90;;;;;;5051426;28;20199;-76
2021/06/26 08:21:33;;;;;;;3.72;3.42;;;26.60;99.90;;;;;;5046154;28;20211;-76
2021/06/26 08:24:00;;;;;;;4.45;4.05;;;25.80;99.90;;;;;;5047915;28;20264;-74
2021/06/26 08:26:27;;;;;;;5.40;3.75;;;25.50;99.90;;;;;;5051055;28;20356;-72
2021/06/26 08:28:54;;;;;;;5.43;3.97;;;25.70;99.90;;;;;;5051377;28;20233;-73
2021/06/26 08:31:21;;;;;;;4.30;3.63;;;25.20;99.90;;;;;;5050994;28;20629;-76
2021/06/26 08:33:50;;;;;;;4.28;3.85;;;24.50;99.90;;;;;;5050547;28;20272;-75
2021/06/26 08:36:16;;;;;;;3.75;3.42;;;24.30;99.90;;;;;;5050955;28;20203;-73
2021/06/26 08:38:43;;;;;;;5.03;3.92;;;24.40;99.90;;;;;;5050087;28;20241;-73
2021/06/26 08:41:12;;;;;;;13.40;12.30;;;24.70;99.90;;;;;;5051127;28;20211;-74
2021/06/26 08:43:40;;;;;;;14.25;5.50;;;24.90;99.90;;;;;;5050748;28;20631;-76
2021/06/26 08:46:07;;;;;;;3.45;3.15;;;25.00;99.90;;;;;;5041990;28;20679;-81
2021/06/26 08:48:35;;;;;;;6.03;5.63;;;25.00;99.90;;;;;;5040755;28;20215;-85
2021/06/26 08:51:04;;;;;;;4.15;3.83;;;25.30;99.90;;;;;;5049539;28;20754;-85
2021/06/26 08:53:31;;;;;;;5.15;4.65;;;25.30;99.90;;;;;;5045826;28;20771;-82
2021/06/26 08:55:58;;;;;;;4.00;3.70;;;25.70;99.90;;;;;;5038966;28;20215;-84
2021/06/26 08:58:25;;;;;;;5.82;5.38;;;25.60;99.90;;;;;;5042230;28;20296;-81
2021/06/26 09:00:52;;;;;;;8.07;4.15;;;25.80;99.90;;;;;;5034757;28;20272;-80
2021/06/26 09:03:22;;;;;;;4.25;3.65;;;25.60;99.90;;;;;;5042265;28;20209;-74
2021/06/26 09:05:50;;;;;;;5.07;3.83;;;26.30;99.90;;;;;;5050095;28;20230;-82
2021/06/26 09:08:20;;;;;;;4.82;3.97;;;27.50;99.90;;;;;;5049747;28;20202;-83
2021/06/26 09:10:48;;;;;;;4.43;4.03;;;27.20;99.90;;;;;;5050140;28;20288;-79
2021/06/26 09:13:22;;;;;;;5.03;3.83;;;27.70;99.90;;;;;;5050716;28;20276;-80
2021/06/26 09:15:50;;;;;;;4.30;3.90;;;28.20;99.90;;;;;;5050389;28;20211;-79
2021/06/26 09:18:18;;;;;;;4.22;3.83;;;27.90;99.90;;;;;;5050370;28;20253;-78
2021/06/26 09:20:48;;;;;;;3.97;3.67;;;28.20;99.90;;;;;;5050238;28;20264;-80
2021/06/26 09:23:30;;;;;;;4.20;3.90;;;27.90;99.90;;;;;;5037618;28;20203;-79
2021/06/26 09:26:08;;;;;;;3.97;3.50;;;28.30;99.90;;;;;;5049724;28;20211;-78
2021/06/26 09:28:35;;;;;;;4.00;3.60;;;27.70;99.90;;;;;;5050580;28;20218;-81
2021/06/26 09:31:02;;;;;;;3.53;3.22;;;28.20;99.90;;;;;;5049486;28;20580;-78
2021/06/26 09:33:29;;;;;;;3.20;3.00;;;27.70;99.90;;;;;;5050581;28;20238;-81
2021/06/26 09:36:06;;;;;;;3.70;3.38;;;27.80;99.90;;;;;;5049848;28;20211;-78
2021/06/26 09:38:54;;;;;;;4.97;3.78;;;28.40;99.90;;;;;;5039430;28;20207;-80
2021/06/26 09:41:21;;;;;;;3.38;2.88;;;27.50;99.90;;;;;;5049815;28;20724;-76
2021/06/26 09:43:48;;;;;;;3.60;3.30;;;28.20;99.90;;;;;;5048253;28;20203;-73
2021/06/26 09:46:16;;;;;;;3.70;3.38;;;27.80;99.90;;;;;;5048053;28;20203;-73
2021/06/26 09:48:54;;;;;;;3.38;3.08;;;27.70;99.90;;;;;;5048379;28;20261;-73
2021/06/26 09:51:24;;;;;;;4.28;3.97;;;27.50;99.90;;;;;;5049761;28;20616;-76
2021/06/26 09:53:57;;;;;;;3.83;3.63;;;28.10;99.90;;;;;;5049565;28;20325;-72
2021/06/26 09:56:36;;;;;;;3.42;3.13;;;29.30;99.90;;;;;;5042409;28;20240;-73
2021/06/26 09:59:03;;;;;;;5.45;3.72;;;31.10;99.90;;;;;;5048214;28;20225;-73
2021/06/26 10:01:33;;;;;;;3.55;3.15;;;31.50;99.90;;;;;;5047906;28;20640;-73
2021/06/26 10:04:00;;;;;;;4.03;3.67;;;32.70;99.90;;;;;;5048565;28;20217;-73
2021/06/26 10:06:28;;;;;;;3.63;3.42;;;32.50;99.90;;;;;;5049709;28;20274;-73
2021/06/26 10:08:56;;;;;;;4.10;3.80;;;31.20;99.90;;;;;;5049691;28;20225;-74
2021/06/26 10:11:24;;;;;;;3.65;3.33;;;31.50;99.90;;;;;;5049904;28;20665;-75
2021/06/26 10:13:52;;;;;;;5.38;3.65;;;32.00;99.90;;;;;;5049586;28;20237;-72
2021/06/26 10:16:19;;;;;;;2.88;2.78;;;33.00;99.90;;;;;;5049868;28;20263;-73
2021/06/26 10:18:47;;;;;;;3.90;2.88;;;33.50;99.90;;;;;;5050593;28;20206;-73
2021/06/26 10:21:14;;;;;;;3.03;2.83;;;35.30;99.90;;;;;;5053528;28;20206;-74
2021/06/26 10:23:41;;;;;;;3.70;3.20;;;36.30;99.90;;;;;;5053701;28;20642;-73
2021/06/26 10:26:10;;;;;;;7.80;3.35;;;34.30;99.90;;;;;;5053584;28;20666;-73
2021/06/26 10:28:47;;;;;;;3.25;3.05;;;34.60;99.90;;;;;;5053333;28;20300;-73
2021/06/26 10:31:15;;;;;;;3.85;2.75;;;34.70;99.90;;;;;;5053460;28;20555;-74
2021/06/26 10:33:44;;;;;;;4.20;3.35;;;36.00;99.90;;;;;;5053260;28;20234;-73
2021/06/26 10:36:12;;;;;;;3.63;3.33;;;35.70;99.90;;;;;;5053276;28;20585;-74
2021/06/26 10:38:43;;;;;;;3.22;3.03;;;33.40;99.90;;;;;;5053055;28;20212;-73
2021/06/26 10:41:19;;;;;;;3.53;3.33;;;30.20;99.90;;;;;;5053702;28;20246;-73
2021/06/26 10:43:56;;;;;;;4.18;3.08;;;29.40;99.90;;;;;;5052922;28;20214;-73
2021/06/26 10:46:23;;;;;;;4.88;3.80;;;27.50;99.90;;;;;;5053498;28;20248;-73
2021/06/26 10:49:01;;;;;;;3.30;2.95;;;28.30;99.90;;;;;;5053200;28;20256;-73
2021/06/26 10:51:33;;;;;;;4.32;3.50;;;28.70;99.90;;;;;;5053106;28;20578;-73
2021/06/26 10:54:14;;;;;;;3.78;3.47;;;29.00;99.90;;;;;;5052649;28;20741;-73
2021/06/26 10:56:44;;;;;;;3.40;3.13;;;28.50;99.90;;;;;;5053097;28;20214;-76
2021/06/26 10:59:12;;;;;;;4.20;3.85;;;28.40;99.90;;;;;;5053382;28;20207;-73
2021/06/26 11:01:40;;;;;;;3.88;3.58;;;28.40;99.90;;;;;;5053087;28;20663;-72
2021/06/26 11:04:09;;;;;;;4.00;3.17;;;28.40;99.90;;;;;;5053045;28;20199;-74
2021/06/26 11:06:36;;;;;;;4.28;3.83;;;28.60;99.90;;;;;;5053023;28;20674;-73
2021/06/26 11:09:06;;;;;;;5.28;3.17;;;28.70;99.90;;;;;;5053147;28;20215;-73
2021/06/26 11:11:35;;;;;;;3.63;3.28;;;28.60;99.90;;;;;;5053529;28;20260;-73
2021/06/26 11:14:15;;;;;;;3.58;3.28;;;28.70;99.90;;;;;;5053222;28;20721;-73
2021/06/26 11:16:47;;;;;;;3.75;3.42;;;28.70;99.90;;;;;;5052646;28;20214;-72
2021/06/26 11:19:14;;;;;;;3.15;2.88;;;28.70;99.90;;;;;;5052592;28;20297;-73
2021/06/26 11:21:45;;;;;;;3.95;3.30;;;28.80;99.90;;;;;;5052554;28;20202;-73
2021/06/26 11:24:12;;;;;;;3.63;3.38;;;28.50;99.90;;;;;;5052790;28;20272;-73
2021/06/26 11:26:53;;;;;;;3.40;3.17;;;28.60;99.90;;;;;;5052617;28;20214;-73
2021/06/26 11:29:33;;;;;;;3.95;2.53;;;28.80;99.90;;;;;;5052347;28;20256;-72
2021/06/26 11:32:01;;;;;;;3.53;3.33;;;28.90;99.90;;;;;;5051548;28;20622;-72
2021/06/26 11:34:29;;;;;;;2.88;2.67;;;28.90;99.90;;;;;;5052168;28;20713;-73
2021/06/26 11:37:01;;;;;;;7.40;3.97;;;28.70;99.90;;;;;;5052464;28;20210;-72
2021/06/26 11:39:29;;;;;;;3.28;3.08;;;28.50;99.90;;;;;;5052634;28;20207;-72
2021/06/26 11:41:56;;;;;;;3.17;2.97;;;28.50;99.90;;;;;;5052316;28;20214;-73
2021/06/26 11:44:36;;;;;;;3.20;2.88;;;29.10;99.90;;;;;;5052350;28;20636;-73
2021/06/26 11:47:05;;;;;;;2.95;2.75;;;29.20;99.90;;;;;;5040472;28;20203;-73
2021/06/26 11:49:34;;;;;;;3.40;3.10;;;29.30;99.90;;;;;;5052806;28;20203;-73
2021/06/26 11:52:01;;;;;;;3.25;2.95;;;29.30;99.90;;;;;;5038622;28;20211;-73
2021/06/26 11:54:28;;;;;;;26.27;3.97;;;29.20;99.90;;;;;;5052153;28;20234;-72
2021/06/26 11:56:55;;;;;;;3.65;2.92;;;29.30;99.90;;;;;;5051668;28;20210;-73
2021/06/26 11:59:22;;;;;;;3.83;3.45;;;29.60;99.90;;;;;;5052231;28;20256;-72
2021/06/26 12:01:51;;;;;;;2.80;2.53;;;29.50;99.90;;;;;;5051528;28;20254;-74
2021/06/26 12:04:28;;;;;;;4.32;2.10;;;29.90;99.90;;;;;;5051979;28;20637;-73
2021/06/26 12:06:56;;;;;;;2.70;2.47;;;29.80;99.90;;;;;;5051740;28;20692;-72
2021/06/26 12:09:24;;;;;;;4.30;2.78;;;29.90;99.90;;;;;;5051565;28;20211;-73
2021/06/26 12:11:54;;;;;;;3.10;2.65;;;29.50;99.90;;;;;;5051511;28;20207;-74
2021/06/26 12:14:29;;;;;;;3.88;3.53;;;29.30;99.90;;;;;;5051612;28;20234;-73
2021/06/26 12:17:09;;;;;;;4.72;2.97;;;29.30;99.90;;;;;;5051179;28;20673;-72
2021/06/26 12:19:37;;;;;;;3.80;3.45;;;29.30;99.90;;;;;;5051628;28;20233;-73
2021/06/26 12:22:05;;;;;;;3.05;2.75;;;29.50;99.90;;;;;;5052001;28;20211;-71
2021/06/26 12:24:36;;;;;;;2.97;2.58;;;28.90;99.90;;;;;;5051840;28;20210;-72
2021/06/26 12:27:11;;;;;;;3.47;3.15;;;28.70;99.90;;;;;;5052227;28;20210;-75
2021/06/26 12:29:39;;;;;;;3.08;2.70;;;28.90;99.90;;;;;;5051176;28;20233;-73
2021/06/26 12:32:08;;;;;;;2.80;2.60;;;29.10;99.90;;;;;;5051102;28;20207;-72
2021/06/26 12:34:46;;;;;;;3.28;2.40;;;29.00;99.90;;;;;;5051511;28;20280;-73
2021/06/26 12:37:14;;;;;;;3.50;2.92;;;28.80;99.90;;;;;;5051721;28;20210;-73
2021/06/26 12:39:41;;;;;;;2.97;2.70;;;29.10;99.90;;;;;;5051014;28;20260;-72
2021/06/26 12:42:11;;;;;;;3.88;3.10;;;29.40;99.90;;;;;;5051324;28;20256;-73
2021/06/26 12:44:40;;;;;;;2.72;2.53;;;29.50;99.90;;;;;;5050521;28;20203;-72
2021/06/26 12:47:11;;;;;;;3.25;3.03;;;29.90;99.90;;;;;;5051100;28;20635;-73
2021/06/26 12:49:39;;;;;;;3.05;2.40;;;29.70;99.90;;;;;;5050581;28;20248;-71